Time;durP1;ratioP1;P1;durP2;ratioP2;P2;SDS_P1;SDS_P2;PMS_P1;PMS_P2;Temp;Humidity;BMP_temperature;BMP_pressure;BME280_temperature;BME280_humidity;BME280_pressure;Samples;Min_cycle;Max_cycle;Signal;HPM_P1;HPM_P2
2022/12/30 00:00:47;;;;;;;43.97;6.03;;;;;;;;;;4941239;28;20045;-69
2022/12/30 00:03:13;;;;;;;38.17;6.13;;;;;;;;;;4940911;28;20037;-68
2022/12/30 00:05:38;;;;;;;48.78;6.65;;;;;;;;;;4924930;28;20141;-69
2022/12/30 00:08:45;;;;;;;36.03;6.15;;;;;;;;;;4942117;28;20037;-68
2022/12/30 00:10:50;;;;;;;43.70;6.57;;;;;;;;;;4941803;28;20050;-69
2022/12/30 00:35:29;;;;;;;45.92;7.00;;;;;;;;;;4940904;28;20474;-68
2022/12/30 00:37:57;;;;;;;35.53;5.35;;;;;;;;;;4941493;28;20572;-68
2022/12/30 00:40:27;;;;;;;46.97;5.70;;;;;;;;;;4941266;28;20468;-68
2022/12/30 00:43:10;;;;;;;50.30;6.38;;;;;;;;;;4940991;28;20132;-68
2022/12/30 00:45:40;;;;;;;44.92;6.55;;;;;;;;;;4941061;28;20134;-67
2022/12/30 00:56:21;;;;;;;44.75;5.93;;;;;;;;;;4941298;28;20111;-68
2022/12/30 00:58:46;;;;;;;36.58;5.72;;;;;;;;;;4941215;28;20114;-68
2022/12/30 01:01:12;;;;;;;38.65;5.70;;;;;;;;;;4939913;28;20349;-68
2022/12/30 01:03:37;;;;;;;44.80;6.13;;;;;;;;;;4941201;28;20043;-68
2022/12/30 01:06:07;;;;;;;49.45;6.28;;;;;;;;;;4940783;28;20081;-68
2022/12/30 01:08:34;;;;;;;50.97;7.05;;;;;;;;;;4938742;28;20027;-68
2022/12/30 01:11:04;;;;;;;49.63;7.60;;;;;;;;;;4941014;28;20121;-68
2022/12/30 01:13:29;;;;;;;42.35;6.35;;;;;;;;;;4940039;28;20088;-68
2022/12/30 01:15:54;;;;;;;46.38;7.45;;;;;;;;;;4940894;28;20314;-68
2022/12/30 01:18:20;;;;;;;48.33;6.78;;;;;;;;;;4940522;28;20272;-68
2022/12/30 01:20:48;;;;;;;66.72;8.98;;;;;;;;;;4941385;28;20272;-68
2022/12/30 01:23:18;;;;;;;43.75;7.63;;;;;;;;;;4908297;28;20043;-68
2022/12/30 01:25:43;;;;;;;44.63;6.38;;;;;;;;;;4940520;28;20335;-68
2022/12/30 01:28:08;;;;;;;48.30;6.03;;;;;;;;;;4940627;28;20037;-68
2022/12/30 01:30:34;;;;;;;49.20;6.38;;;;;;;;;;4940213;28;20183;-70
2022/12/30 01:32:59;;;;;;;48.55;6.93;;;;;;;;;;4940340;28;20267;-68
2022/12/30 01:35:25;;;;;;;61.17;8.73;;;;;;;;;;4941023;28;20062;-68
2022/12/30 01:37:50;;;;;;;37.35;5.72;;;;;;;;;;4923502;28;20038;-68
2022/12/30 01:40:15;;;;;;;52.15;5.97;;;;;;;;;;4941114;28;20602;-68
2022/12/30 01:42:43;;;;;;;40.15;6.28;;;;;;;;;;4940508;28;20039;-68
2022/12/30 01:45:14;;;;;;;40.47;7.28;;;;;;;;;;4907242;28;20530;-68
2022/12/30 01:47:41;;;;;;;37.22;5.82;;;;;;;;;;5006327;28;20773;-68
2022/12/30 01:50:10;;;;;;;54.92;6.90;;;;;;;;;;4930002;28;20035;-69
2022/12/30 01:52:40;;;;;;;39.72;6.70;;;;;;;;;;4923609;28;20042;-68
2022/12/30 01:55:10;;;;;;;43.92;6.53;;;;;;;;;;4938281;28;20042;-68
2022/12/30 01:57:40;;;;;;;44.17;6.20;;;;;;;;;;4922891;28;20035;-68
2022/12/30 02:00:07;;;;;;;48.38;5.72;;;;;;;;;;4939743;28;20050;-68
2022/12/30 02:02:35;;;;;;;48.25;5.57;;;;;;;;;;4923281;28;20126;-68
2022/12/30 02:05:02;;;;;;;41.50;6.30;;;;;;;;;;4922817;28;20108;-68
2022/12/30 02:07:34;;;;;;;46.60;5.75;;;;;;;;;;4922326;28;20035;-68
2022/12/30 02:09:59;;;;;;;45.08;6.45;;;;;;;;;;4941726;28;20275;-69
2022/12/30 02:12:25;;;;;;;48.25;6.28;;;;;;;;;;4923040;28;20561;-67
2022/12/30 02:14:51;;;;;;;39.13;5.93;;;;;;;;;;4940100;28;20046;-69
2022/12/30 02:17:28;;;;;;;47.25;6.07;;;;;;;;;;4940639;28;20043;-69
2022/12/30 02:20:05;;;;;;;48.13;10.75;;;;;;;;;;4939588;28;20110;-67
2022/12/30 02:22:30;;;;;;;44.15;9.02;;;;;;;;;;4940081;28;20534;-67
2022/12/30 02:25:03;;;;;;;42.88;5.93;;;;;;;;;;4922511;28;20446;-68
2022/12/30 02:27:49;;;;;;;42.80;8.68;;;;;;;;;;4923179;28;20417;-68
2022/12/30 02:30:21;;;;;;;51.83;7.47;;;;;;;;;;4922134;28;20080;-68
2022/12/30 02:32:52;;;;;;;54.55;8.55;;;;;;;;;;4940452;28;20472;-69
2022/12/30 02:35:31;;;;;;;57.85;10.55;;;;;;;;;;4939787;28;20049;-67
2022/12/30 02:38:02;;;;;;;54.50;10.13;;;;;;;;;;4940378;28;20031;-67
2022/12/30 02:44:36;;;;;;;71.32;10.98;;;;;;;;;;4938830;28;20464;-68
2022/12/30 02:46:09;;;;;;;56.00;11.63;;;;;;;;;;4939771;28;20170;-68
2022/12/30 02:48:36;;;;;;;51.50;10.60;;;;;;;;;;4939536;28;20482;-68
2022/12/30 02:53:49;;;;;;;48.67;11.77;;;;;;;;;;4939213;28;20050;-67
2022/12/30 02:56:17;;;;;;;45.67;11.93;;;;;;;;;;4937755;28;20042;-69
2022/12/30 02:58:48;;;;;;;52.70;11.95;;;;;;;;;;4940022;28;20042;-68
2022/12/30 03:04:21;;;;;;;50.95;10.93;;;;;;;;;;4939729;28;20213;-68
2022/12/30 03:07:05;;;;;;;67.10;11.40;;;;;;;;;;4922050;28;20034;-68
2022/12/30 03:09:32;;;;;;;46.40;9.73;;;;;;;;;;4939321;28;20497;-69
2022/12/30 03:12:16;;;;;;;31.58;7.57;;;;;;;;;;4938763;28;20065;-69
2022/12/30 03:14:47;;;;;;;33.83;11.52;;;;;;;;;;4938908;28;20080;-68
2022/12/30 03:17:26;;;;;;;31.10;8.00;;;;;;;;;;4938752;28;20134;-69
2022/12/30 03:19:55;;;;;;;36.67;8.23;;;;;;;;;;4937812;28;20430;-68
2022/12/30 03:27:56;;;;;;;30.55;7.32;;;;;;;;;;4939116;28;20096;-68
2022/12/30 03:30:21;;;;;;;25.25;7.00;;;;;;;;;;4922397;28;20271;-67
2022/12/30 03:32:49;;;;;;;30.50;9.35;;;;;;;;;;4941833;28;20129;-69
2022/12/30 03:35:16;;;;;;;32.70;9.10;;;;;;;;;;4941892;28;20442;-68
2022/12/30 03:37:45;;;;;;;34.13;8.52;;;;;;;;;;4942455;28;20077;-67
2022/12/30 03:40:18;;;;;;;29.30;8.60;;;;;;;;;;4942369;28;20077;-68
2022/12/30 03:42:46;;;;;;;31.42;8.88;;;;;;;;;;4921417;28;20459;-67
2022/12/30 03:45:15;;;;;;;26.08;6.60;;;;;;;;;;4942310;28;20442;-69
2022/12/30 03:47:42;;;;;;;24.50;8.43;;;;;;;;;;4921797;28;20028;-68
2022/12/30 03:50:08;;;;;;;30.13;9.05;;;;;;;;;;4889920;28;20058;-68
2022/12/30 03:52:33;;;;;;;26.67;7.38;;;;;;;;;;4922063;28;20428;-68
2022/12/30 03:54:59;;;;;;;33.55;9.25;;;;;;;;;;4922998;28;20035;-66
2022/12/30 03:57:25;;;;;;;32.30;9.38;;;;;;;;;;4923890;28;20044;-67
2022/12/30 03:59:50;;;;;;;32.70;11.25;;;;;;;;;;4922666;28;20085;-68
2022/12/30 04:02:15;;;;;;;38.42;9.07;;;;;;;;;;4923274;28;20166;-67
2022/12/30 04:04:40;;;;;;;61.78;13.60;;;;;;;;;;4988467;28;20035;-68
2022/12/30 04:07:06;;;;;;;39.95;11.32;;;;;;;;;;4906157;28;20039;-68
2022/12/30 04:09:31;;;;;;;38.15;10.57;;;;;;;;;;4921584;28;20281;-68
2022/12/30 04:11:56;;;;;;;36.13;8.43;;;;;;;;;;4905753;28;20038;-66
2022/12/30 04:14:24;;;;;;;30.27;8.20;;;;;;;;;;4906480;28;20130;-69
2022/12/30 04:16:52;;;;;;;36.97;9.88;;;;;;;;;;4923784;28;20199;-67
2022/12/30 04:19:17;;;;;;;46.75;10.38;;;;;;;;;;4923584;28;20039;-67
2022/12/30 04:21:42;;;;;;;35.53;8.63;;;;;;;;;;4921393;28;20047;-68
2022/12/30 04:24:10;;;;;;;36.15;10.70;;;;;;;;;;4921798;28;20042;-67
2022/12/30 04:26:35;;;;;;;31.35;9.77;;;;;;;;;;4905747;28;20440;-67
2022/12/30 04:29:03;;;;;;;25.10;6.65;;;;;;;;;;4923274;28;20055;-68
2022/12/30 04:31:28;;;;;;;20.13;5.30;;;;;;;;;;4922900;28;20482;-69
2022/12/30 04:33:54;;;;;;;28.50;7.70;;;;;;;;;;4923906;28;20047;-67
2022/12/30 04:36:20;;;;;;;20.90;8.18;;;;;;;;;;4922637;28;20810;-68
2022/12/30 04:38:46;;;;;;;25.25;6.20;;;;;;;;;;4940935;28;20034;-68
2022/12/30 04:41:11;;;;;;;24.23;6.32;;;;;;;;;;4943504;28;20619;-68
2022/12/30 04:43:37;;;;;;;21.52;5.30;;;;;;;;;;4943784;28;20041;-68
2022/12/30 04:46:04;;;;;;;24.35;5.63;;;;;;;;;;4921895;28;20038;-68
2022/12/30 04:48:32;;;;;;;22.08;5.32;;;;;;;;;;4923152;28;20671;-68
2022/12/30 04:50:57;;;;;;;25.80;5.75;;;;;;;;;;4937090;28;20040;-68
2022/12/30 04:53:23;;;;;;;21.25;6.22;;;;;;;;;;4922446;28;20035;-69
2022/12/30 04:55:55;;;;;;;20.65;5.25;;;;;;;;;;4922864;28;20051;-68
2022/12/30 04:58:21;;;;;;;23.60;5.47;;;;;;;;;;4922634;28;20109;-68
2022/12/30 05:00:47;;;;;;;32.13;9.10;;;;;;;;;;4923283;28;20024;-68
2022/12/30 05:03:13;;;;;;;25.80;6.15;;;;;;;;;;4922581;28;20584;-68
2022/12/30 05:05:39;;;;;;;26.48;7.28;;;;;;;;;;4923328;28;20658;-68
2022/12/30 05:08:07;;;;;;;29.92;11.60;;;;;;;;;;4922503;28;20024;-68
2022/12/30 05:10:35;;;;;;;26.77;8.40;;;;;;;;;;4923124;28;20492;-68
2022/12/30 05:13:01;;;;;;;25.50;7.70;;;;;;;;;;4923036;28;21013;-68
2022/12/30 05:15:27;;;;;;;30.00;9.65;;;;;;;;;;4920137;28;20295;-68
2022/12/30 05:17:57;;;;;;;30.75;9.35;;;;;;;;;;4921012;28;20469;-67
2022/12/30 05:20:24;;;;;;;30.58;9.85;;;;;;;;;;4922996;28;20027;-68
2022/12/30 05:22:52;;;;;;;37.25;10.30;;;;;;;;;;4922663;28;20165;-67
2022/12/30 05:28:01;;;;;;;23.70;7.47;;;;;;;;;;4922593;28;20067;-67
2022/12/30 05:30:29;;;;;;;28.58;6.95;;;;;;;;;;4921031;28;20492;-68
2022/12/30 05:32:54;;;;;;;29.63;7.60;;;;;;;;;;4922410;28;20545;-67
2022/12/30 05:35:22;;;;;;;35.95;9.82;;;;;;;;;;4922694;28;20189;-67
2022/12/30 05:37:47;;;;;;;27.30;9.35;;;;;;;;;;4940772;28;20572;-67
2022/12/30 05:40:12;;;;;;;39.88;11.60;;;;;;;;;;4942920;28;20026;-68
2022/12/30 05:42:43;;;;;;;32.53;11.48;;;;;;;;;;4908097;28;20053;-68
2022/12/30 05:45:08;;;;;;;31.80;11.88;;;;;;;;;;4942195;28;20031;-68
2022/12/30 05:47:34;;;;;;;40.47;12.82;;;;;;;;;;4941247;28;20027;-68
2022/12/30 05:50:02;;;;;;;38.72;13.55;;;;;;;;;;4940764;28;20505;-67
2022/12/30 05:52:30;;;;;;;45.83;10.93;;;;;;;;;;4940940;28;20147;-68
2022/12/30 05:54:55;;;;;;;36.63;12.50;;;;;;;;;;4939961;28;20038;-68
2022/12/30 05:57:20;;;;;;;37.30;11.70;;;;;;;;;;4941217;28;20415;-68
2022/12/30 05:59:46;;;;;;;43.08;13.10;;;;;;;;;;4940475;28;20815;-69
2022/12/30 06:02:16;;;;;;;34.53;11.25;;;;;;;;;;4923052;28;20546;-68
2022/12/30 06:04:41;;;;;;;32.78;9.57;;;;;;;;;;4941093;28;20363;-68
2022/12/30 06:07:06;;;;;;;29.30;9.18;;;;;;;;;;4940402;28;20143;-68
2022/12/30 06:09:34;;;;;;;28.17;7.57;;;;;;;;;;4923422;28;20035;-68
2022/12/30 06:11:59;;;;;;;34.10;8.82;;;;;;;;;;4939101;28;20035;-68
2022/12/30 06:14:26;;;;;;;34.88;9.02;;;;;;;;;;4940326;28;20810;-67
2022/12/30 06:16:52;;;;;;;26.00;7.90;;;;;;;;;;4922361;28;20262;-67
2022/12/30 06:19:19;;;;;;;26.35;7.35;;;;;;;;;;4939865;28;20088;-68
2022/12/30 06:21:44;;;;;;;28.27;7.40;;;;;;;;;;4939834;28;20575;-68
2022/12/30 06:24:10;;;;;;;19.17;6.40;;;;;;;;;;4940166;28;20558;-68
2022/12/30 06:26:35;;;;;;;24.88;5.90;;;;;;;;;;4922533;28;20062;-69
2022/12/30 06:29:00;;;;;;;24.05;6.28;;;;;;;;;;4922982;28;20027;-68
2022/12/30 06:31:28;;;;;;;23.35;6.35;;;;;;;;;;4938368;28;20092;-69
2022/12/30 06:33:53;;;;;;;25.25;7.00;;;;;;;;;;4943212;28;20432;-72
2022/12/30 06:36:18;;;;;;;25.13;6.00;;;;;;;;;;4946406;28;20057;-72
2022/12/30 06:38:43;;;;;;;34.65;6.10;;;;;;;;;;4946165;28;20041;-72
2022/12/30 06:41:11;;;;;;;18.80;5.95;;;;;;;;;;4931241;28;20247;-72
2022/12/30 06:43:36;;;;;;;25.17;5.45;;;;;;;;;;4946585;28;20234;-71
2022/12/30 06:46:02;;;;;;;21.80;5.57;;;;;;;;;;4947188;28;20134;-71
2022/12/30 06:48:27;;;;;;;22.95;6.13;;;;;;;;;;4929242;28;20031;-72
2022/12/30 06:51:04;;;;;;;24.98;6.25;;;;;;;;;;4945817;28;20493;-73
2022/12/30 06:53:29;;;;;;;25.40;6.72;;;;;;;;;;4947079;28;20061;-72
2022/12/30 06:55:58;;;;;;;28.13;8.95;;;;;;;;;;4930289;28;20056;-71
2022/12/30 06:58:23;;;;;;;26.38;6.82;;;;;;;;;;4928028;28;20031;-71
2022/12/30 07:00:48;;;;;;;26.10;6.68;;;;;;;;;;4947183;28;20429;-70
2022/12/30 07:03:14;;;;;;;26.58;5.97;;;;;;;;;;4944849;28;20452;-72
2022/12/30 07:05:39;;;;;;;24.30;6.53;;;;;;;;;;4928645;28;20160;-72
2022/12/30 07:08:09;;;;;;;18.95;5.38;;;;;;;;;;4950724;28;20034;-72
2022/12/30 07:10:34;;;;;;;19.70;5.35;;;;;;;;;;4929182;28;20839;-71
2022/12/30 07:13:05;;;;;;;18.95;5.82;;;;;;;;;;4930305;28;20295;-71
2022/12/30 07:15:35;;;;;;;22.77;5.75;;;;;;;;;;4947833;28;20080;-71
2022/12/30 07:18:01;;;;;;;27.77;6.22;;;;;;;;;;4947812;28;20480;-71
2022/12/30 07:20:28;;;;;;;27.13;6.22;;;;;;;;;;4912081;28;20150;-72
2022/12/30 07:22:54;;;;;;;22.08;6.63;;;;;;;;;;4945743;28;20031;-72
2022/12/30 07:25:21;;;;;;;21.20;5.50;;;;;;;;;;4945044;28;20400;-71
2022/12/30 07:27:46;;;;;;;23.80;6.25;;;;;;;;;;4927566;28;20293;-71
2022/12/30 07:30:14;;;;;;;29.75;6.65;;;;;;;;;;4926705;28;20346;-70
2022/12/30 07:32:42;;;;;;;26.70;6.55;;;;;;;;;;4927895;28;20118;-70
2022/12/30 07:35:10;;;;;;;29.27;7.05;;;;;;;;;;4910836;28;20684;-70
2022/12/30 07:37:40;;;;;;;26.77;7.60;;;;;;;;;;4912920;28;20038;-71
2022/12/30 07:40:06;;;;;;;20.98;6.95;;;;;;;;;;4944995;28;20326;-70
2022/12/30 07:42:32;;;;;;;18.90;7.00;;;;;;;;;;4945937;28;20031;-71
2022/12/30 07:44:57;;;;;;;19.88;6.22;;;;;;;;;;4944462;28;20042;-71
2022/12/30 07:47:23;;;;;;;22.45;7.78;;;;;;;;;;4985347;28;20035;-69
2022/12/30 07:49:49;;;;;;;33.00;9.40;;;;;;;;;;4943545;28;20039;-71
2022/12/30 07:52:14;;;;;;;25.20;9.07;;;;;;;;;;4926447;28;20035;-71
2022/12/30 07:54:41;;;;;;;24.85;8.05;;;;;;;;;;4943759;28;20316;-70
2022/12/30 07:57:07;;;;;;;26.80;7.57;;;;;;;;;;4944096;28;20042;-70
2022/12/30 07:59:32;;;;;;;26.85;7.32;;;;;;;;;;4941726;28;20045;-70
2022/12/30 08:01:57;;;;;;;20.27;7.75;;;;;;;;;;4944100;28;20034;-71
2022/12/30 08:04:23;;;;;;;26.52;7.88;;;;;;;;;;4945611;28;20046;-70
2022/12/30 08:06:50;;;;;;;25.88;7.00;;;;;;;;;;4913767;28;20410;-68
2022/12/30 08:09:15;;;;;;;29.13;8.15;;;;;;;;;;4943180;28;20043;-68
2022/12/30 08:11:41;;;;;;;21.02;6.93;;;;;;;;;;4940683;28;20030;-68
2022/12/30 08:14:07;;;;;;;25.92;8.18;;;;;;;;;;4942774;28;20043;-69
2022/12/30 08:16:32;;;;;;;19.58;7.20;;;;;;;;;;4941852;28;20567;-68
2022/12/30 08:19:00;;;;;;;26.45;7.72;;;;;;;;;;4925442;28;20054;-69
2022/12/30 08:21:25;;;;;;;24.20;6.70;;;;;;;;;;4992386;28;20059;-68
2022/12/30 08:23:53;;;;;;;24.00;7.28;;;;;;;;;;4924322;28;20075;-69
2022/12/30 08:26:20;;;;;;;19.05;6.47;;;;;;;;;;5008936;28;20043;-69
2022/12/30 08:28:45;;;;;;;47.55;15.68;;;;;;;;;;4941725;28;20030;-68
2022/12/30 08:31:18;;;;;;;30.10;11.10;;;;;;;;;;4943263;28;20027;-70
2022/12/30 08:33:44;;;;;;;23.45;7.22;;;;;;;;;;4921895;28;20081;-69
2022/12/30 08:36:11;;;;;;;23.98;9.25;;;;;;;;;;4923725;28;20039;-71
2022/12/30 08:38:41;;;;;;;29.98;8.93;;;;;;;;;;4920941;28;20040;-68
2022/12/30 08:41:08;;;;;;;25.55;7.40;;;;;;;;;;4922764;28;20458;-68
2022/12/30 08:43:35;;;;;;;22.98;7.88;;;;;;;;;;4923687;28;20036;-69
2022/12/30 08:46:01;;;;;;;25.77;7.30;;;;;;;;;;4926245;28;20720;-69
2022/12/30 08:48:26;;;;;;;22.17;7.47;;;;;;;;;;4942114;28;20623;-67
2022/12/30 08:50:54;;;;;;;29.58;8.25;;;;;;;;;;4941747;28;20261;-69
2022/12/30 08:53:19;;;;;;;20.00;7.07;;;;;;;;;;4941794;28;20038;-68
2022/12/30 08:55:45;;;;;;;18.77;7.70;;;;;;;;;;4990892;28;20046;-67
2022/12/30 08:58:13;;;;;;;23.17;7.85;;;;;;;;;;4924433;28;20038;-68
2022/12/30 09:00:39;;;;;;;28.55;7.35;;;;;;;;;;4941214;28;20045;-69
2022/12/30 09:03:04;;;;;;;19.20;7.95;;;;;;;;;;4939345;28;20031;-68
2022/12/30 09:05:31;;;;;;;19.88;7.00;;;;;;;;;;4941745;28;20038;-68
2022/12/30 09:08:01;;;;;;;21.20;7.88;;;;;;;;;;4941513;28;20384;-68
2022/12/30 09:10:31;;;;;;;25.02;7.88;;;;;;;;;;4940891;28;20042;-68
2022/12/30 09:12:57;;;;;;;21.20;8.50;;;;;;;;;;4940937;28;20443;-67
2022/12/30 09:15:22;;;;;;;18.05;8.82;;;;;;;;;;4942838;28;20050;-69
2022/12/30 09:17:47;;;;;;;26.42;9.60;;;;;;;;;;4943878;28;20656;-69
2022/12/30 09:20:15;;;;;;;18.67;8.00;;;;;;;;;;4932445;28;20113;-68
2022/12/30 09:22:41;;;;;;;22.02;8.20;;;;;;;;;;4908983;28;20556;-68
2022/12/30 09:25:09;;;;;;;21.98;8.20;;;;;;;;;;4942168;28;20402;-69
2022/12/30 09:27:34;;;;;;;21.55;8.68;;;;;;;;;;4942641;28;20453;-68
2022/12/30 09:29:59;;;;;;;19.70;7.85;;;;;;;;;;4908074;28;20270;-69
2022/12/30 09:32:25;;;;;;;16.30;6.53;;;;;;;;;;4926698;28;20046;-69
2022/12/30 09:34:50;;;;;;;18.83;6.88;;;;;;;;;;4922494;28;20043;-68
2022/12/30 09:37:15;;;;;;;21.73;7.07;;;;;;;;;;4922237;28;20561;-68
2022/12/30 09:39:41;;;;;;;18.85;7.32;;;;;;;;;;4921594;28;20044;-69
2022/12/30 09:45:02;;;;;;;20.63;7.05;;;;;;;;;;4923711;28;20040;-69
2022/12/30 09:47:36;;;;;;;18.15;7.53;;;;;;;;;;4937692;28;20047;-69
2022/12/30 09:50:07;;;;;;;21.25;7.90;;;;;;;;;;4941161;28;20038;-69
2022/12/30 09:52:36;;;;;;;20.48;7.45;;;;;;;;;;4941073;28;20682;-69
2022/12/30 09:55:05;;;;;;;22.20;7.35;;;;;;;;;;4940857;28;20089;-67
2022/12/30 09:57:34;;;;;;;23.13;7.35;;;;;;;;;;4941080;28;20228;-68
2022/12/30 10:00:15;;;;;;;18.92;7.07;;;;;;;;;;4941613;28;20037;-68
2022/12/30 10:02:43;;;;;;;19.92;7.13;;;;;;;;;;4938785;28;20753;-69
2022/12/30 10:05:12;;;;;;;22.25;7.50;;;;;;;;;;4939137;28;20501;-68
2022/12/30 10:07:56;;;;;;;16.27;6.75;;;;;;;;;;4943167;28;20524;-69
2022/12/30 10:10:37;;;;;;;16.08;6.78;;;;;;;;;;4941286;28;20043;-69
2022/12/30 10:13:06;;;;;;;18.90;6.97;;;;;;;;;;4923229;28;20480;-68
2022/12/30 10:15:38;;;;;;;19.15;6.40;;;;;;;;;;4940211;28;20070;-68
2022/12/30 10:18:13;;;;;;;20.00;5.47;;;;;;;;;;4940273;28;20645;-68
2022/12/30 10:20:48;;;;;;;14.38;6.15;;;;;;;;;;4943659;28;20035;-68
2022/12/30 10:23:15;;;;;;;16.27;5.55;;;;;;;;;;4923861;28;20425;-69
2022/12/30 10:25:56;;;;;;;14.95;5.32;;;;;;;;;;4942190;28;20031;-70
2022/12/30 10:28:29;;;;;;;19.85;6.07;;;;;;;;;;4940641;28;20180;-68
2022/12/30 10:30:54;;;;;;;18.70;6.28;;;;;;;;;;4940834;28;20031;-70
2022/12/30 10:33:21;;;;;;;22.45;6.30;;;;;;;;;;4941716;28;20038;-69
2022/12/30 10:35:49;;;;;;;15.90;6.28;;;;;;;;;;4924646;28;20092;-69
2022/12/30 10:38:19;;;;;;;20.23;6.80;;;;;;;;;;4925970;28;20034;-68
2022/12/30 10:41:00;;;;;;;26.92;10.80;;;;;;;;;;4940233;28;20710;-70
2022/12/30 10:43:31;;;;;;;33.55;11.68;;;;;;;;;;4940298;28;20031;-69
2022/12/30 10:46:14;;;;;;;14.63;6.50;;;;;;;;;;4922980;28;20100;-68
2022/12/30 10:48:46;;;;;;;16.00;6.97;;;;;;;;;;4939864;28;20038;-69
2022/12/30 10:51:14;;;;;;;17.73;6.40;;;;;;;;;;4939859;28;20272;-68
2022/12/30 10:53:42;;;;;;;15.77;6.22;;;;;;;;;;4940404;28;20034;-67
2022/12/30 10:56:14;;;;;;;18.25;8.18;;;;;;;;;;4939013;28;20153;-71
2022/12/30 10:58:44;;;;;;;13.23;5.67;;;;;;;;;;4923145;28;20031;-70
2022/12/30 11:01:14;;;;;;;16.50;6.32;;;;;;;;;;4940550;28;20454;-69
2022/12/30 11:03:45;;;;;;;15.55;6.38;;;;;;;;;;4941373;28;20370;-70
2022/12/30 11:06:16;;;;;;;13.90;6.77;;;;;;;;;;4942339;28;20038;-69
2022/12/30 11:08:42;;;;;;;18.35;7.10;;;;;;;;;;4941324;28;20031;-69
2022/12/30 11:11:08;;;;;;;15.57;6.25;;;;;;;;;;4939240;28;20031;-69
2022/12/30 11:16:31;;;;;;;15.32;6.40;;;;;;;;;;4934819;28;20051;-68
2022/12/30 11:18:58;;;;;;;18.63;7.10;;;;;;;;;;4919758;28;20068;-69
2022/12/30 11:21:25;;;;;;;29.48;9.73;;;;;;;;;;4920448;28;20035;-68
2022/12/30 11:23:55;;;;;;;21.15;8.25;;;;;;;;;;4921148;28;20108;-68
2022/12/30 11:26:21;;;;;;;20.17;6.05;;;;;;;;;;4903999;28;20039;-69
2022/12/30 11:28:49;;;;;;;20.50;7.63;;;;;;;;;;4921468;28;20494;-67
2022/12/30 11:31:16;;;;;;;17.42;5.40;;;;;;;;;;4921354;28;20039;-69
2022/12/30 11:33:53;;;;;;;24.42;7.63;;;;;;;;;;5003620;28;22510;-68
2022/12/30 11:36:31;;;;;;;22.27;8.15;;;;;;;;;;4904504;28;20035;-68
2022/12/30 11:38:57;;;;;;;17.05;5.88;;;;;;;;;;4921027;28;20462;-68
2022/12/30 11:41:27;;;;;;;22.75;6.63;;;;;;;;;;4903522;28;20047;-68
2022/12/30 11:43:58;;;;;;;18.63;5.32;;;;;;;;;;4921245;28;20122;-68
2022/12/30 11:46:25;;;;;;;22.27;5.90;;;;;;;;;;4921148;28;20035;-67
2022/12/30 11:48:52;;;;;;;23.90;8.25;;;;;;;;;;4919341;28;20286;-70
2022/12/30 11:51:17;;;;;;;27.40;7.38;;;;;;;;;;4921744;28;20039;-68
2022/12/30 11:53:42;;;;;;;21.08;6.78;;;;;;;;;;4923690;28;20035;-68
2022/12/30 11:56:08;;;;;;;25.15;7.70;;;;;;;;;;4924632;28;20284;-68
2022/12/30 11:58:37;;;;;;;27.58;8.40;;;;;;;;;;4923924;28;20051;-69
2022/12/30 12:01:07;;;;;;;21.23;7.22;;;;;;;;;;4924484;28;20453;-68
2022/12/30 12:03:32;;;;;;;22.58;5.53;;;;;;;;;;4923915;28;20078;-68
2022/12/30 12:06:07;;;;;;;15.98;5.18;;;;;;;;;;4924318;28;20027;-69
2022/12/30 12:08:51;;;;;;;28.77;8.98;;;;;;;;;;4923660;28;20828;-69
2022/12/30 12:11:18;;;;;;;22.50;7.00;;;;;;;;;;4922322;28;20108;-67
2022/12/30 12:14:06;;;;;;;22.73;7.07;;;;;;;;;;4923226;28;20070;-69
2022/12/30 12:16:42;;;;;;;17.73;5.75;;;;;;;;;;4923234;28;20105;-67
2022/12/30 12:19:19;;;;;;;22.35;6.80;;;;;;;;;;4923170;28;20034;-67
2022/12/30 12:21:48;;;;;;;31.50;9.52;;;;;;;;;;4923444;28;20049;-68
2022/12/30 12:24:34;;;;;;;23.02;7.32;;;;;;;;;;4923336;28;20577;-67
2022/12/30 12:27:08;;;;;;;20.58;6.32;;;;;;;;;;4929588;28;20557;-68
2022/12/30 12:29:34;;;;;;;22.08;6.78;;;;;;;;;;4925240;28;20749;-68
2022/12/30 12:31:59;;;;;;;27.63;9.50;;;;;;;;;;4945013;28;20027;-68
2022/12/30 12:34:43;;;;;;;21.80;9.35;;;;;;;;;;4943691;28;20534;-68
2022/12/30 12:37:15;;;;;;;29.77;9.10;;;;;;;;;;4925115;28;20061;-68
2022/12/30 12:39:49;;;;;;;32.40;9.45;;;;;;;;;;4943547;28;20548;-69
2022/12/30 12:42:19;;;;;;;18.58;6.25;;;;;;;;;;4943633;28;20034;-69
2022/12/30 12:44:45;;;;;;;16.63;4.95;;;;;;;;;;4945602;28;20042;-68
2022/12/30 12:47:33;;;;;;;21.20;5.85;;;;;;;;;;4930654;28;20263;-68
2022/12/30 12:49:58;;;;;;;19.52;6.13;;;;;;;;;;4906085;28;20039;-67
2022/12/30 12:52:33;;;;;;;18.73;5.25;;;;;;;;;;5004800;28;20726;-70
2022/12/30 12:55:13;;;;;;;14.80;4.15;;;;;;;;;;4923702;28;20062;-68
2022/12/30 12:57:52;;;;;;;15.27;3.95;;;;;;;;;;4923516;28;20467;-69
2022/12/30 13:00:18;;;;;;;17.63;3.80;;;;;;;;;;4922923;28;20805;-69
2022/12/30 13:03:03;;;;;;;14.10;3.60;;;;;;;;;;4924018;28;20549;-68
2022/12/30 13:05:31;;;;;;;21.67;7.15;;;;;;;;;;4923164;28;20143;-68
2022/12/30 13:07:56;;;;;;;33.88;11.57;;;;;;;;;;4922615;28;20035;-68
2022/12/30 13:10:27;;;;;;;20.42;6.45;;;;;;;;;;4923562;28;20377;-68
2022/12/30 13:12:56;;;;;;;21.90;7.13;;;;;;;;;;4922423;28;20349;-69
2022/12/30 13:15:24;;;;;;;15.65;3.78;;;;;;;;;;5005016;28;20343;-69
2022/12/30 13:17:53;;;;;;;16.90;3.88;;;;;;;;;;4922852;28;20070;-68
2022/12/30 13:20:36;;;;;;;13.27;4.03;;;;;;;;;;4923330;28;20382;-69
2022/12/30 13:23:08;;;;;;;14.45;4.20;;;;;;;;;;4922681;28;20268;-68
2022/12/30 13:25:37;;;;;;;16.58;4.60;;;;;;;;;;4923701;28;20137;-68
2022/12/30 13:28:03;;;;;;;14.27;5.22;;;;;;;;;;4943303;28;20130;-68
2022/12/30 13:30:32;;;;;;;12.70;4.88;;;;;;;;;;4940437;28;20023;-68
2022/12/30 13:33:37;;;;;;;19.42;4.88;;;;;;;;;;4942694;28;20679;-69
2022/12/30 13:36:11;;;;;;;19.00;4.97;;;;;;;;;;4960112;28;20217;-69
2022/12/30 13:38:44;;;;;;;17.08;4.82;;;;;;;;;;4959550;28;20664;-68
2022/12/30 13:41:24;;;;;;;22.05;7.57;;;;;;;;;;4972676;28;20027;-68
2022/12/30 13:43:56;;;;;;;21.60;7.07;;;;;;;;;;4943144;28;20029;-68
2022/12/30 13:46:23;;;;;;;17.13;4.93;;;;;;;;;;4941359;28;20326;-67
2022/12/30 13:49:15;;;;;;;21.48;7.07;;;;;;;;;;4942243;28;20637;-69
2022/12/30 13:51:51;;;;;;;29.58;8.48;;;;;;;;;;4940926;28;20034;-66
2022/12/30 13:54:18;;;;;;;21.10;6.43;;;;;;;;;;4936019;28;20055;-65
2022/12/30 13:56:49;;;;;;;18.35;5.00;;;;;;;;;;4922628;28;20146;-66
2022/12/30 13:59:31;;;;;;;29.48;8.10;;;;;;;;;;4920014;28;20047;-66
2022/12/30 14:02:15;;;;;;;32.60;9.10;;;;;;;;;;4936593;28;20520;-67
2022/12/30 14:04:50;;;;;;;19.65;6.80;;;;;;;;;;4922341;28;20555;-67
2022/12/30 14:07:34;;;;;;;28.77;8.23;;;;;;;;;;4923044;28;20431;-69
2022/12/30 14:10:15;;;;;;;30.63;8.95;;;;;;;;;;4922902;28;20171;-66
2022/12/30 14:12:44;;;;;;;20.08;5.93;;;;;;;;;;4921006;28;20035;-69
2022/12/30 14:15:28;;;;;;;16.15;5.05;;;;;;;;;;4926700;28;20043;-69
2022/12/30 14:17:54;;;;;;;10.52;3.63;;;;;;;;;;4943071;28;20046;-66
2022/12/30 14:20:21;;;;;;;9.10;2.97;;;;;;;;;;4942943;28;20034;-68
2022/12/30 14:22:49;;;;;;;15.25;6.35;;;;;;;;;;4943173;28;20039;-69
2022/12/30 14:25:34;;;;;;;11.30;4.20;;;;;;;;;;4943454;28;20031;-69
2022/12/30 14:28:04;;;;;;;20.90;5.18;;;;;;;;;;4943446;28;20042;-69
2022/12/30 14:30:32;;;;;;;27.58;6.60;;;;;;;;;;4942663;28;20039;-69
2022/12/30 14:32:58;;;;;;;13.80;3.95;;;;;;;;;;4942959;28;20780;-69
2022/12/30 14:35:24;;;;;;;10.88;3.60;;;;;;;;;;4942695;28;20101;-69
2022/12/30 14:37:49;;;;;;;13.60;4.10;;;;;;;;;;4942862;28;20162;-69
2022/12/30 14:40:30;;;;;;;12.65;4.32;;;;;;;;;;4942568;28;20315;-69
2022/12/30 14:42:55;;;;;;;13.93;5.63;;;;;;;;;;4941820;28;20118;-68
2022/12/30 14:45:23;;;;;;;17.42;6.88;;;;;;;;;;4941982;28;20043;-68
2022/12/30 14:47:51;;;;;;;9.98;4.60;;;;;;;;;;4939954;28;20463;-69
2022/12/30 14:50:17;;;;;;;12.68;7.10;;;;;;;;;;4922780;28;20035;-68
2022/12/30 14:52:48;;;;;;;20.80;9.40;;;;;;;;;;4941559;28;20039;-69
2022/12/30 14:55:19;;;;;;;19.83;9.98;;;;;;;;;;4941548;28;20054;-69
2022/12/30 14:57:44;;;;;;;20.73;11.13;;;;;;;;;;4940867;28;20068;-69
2022/12/30 15:00:10;;;;;;;17.65;9.07;;;;;;;;;;4940364;28;20504;-69
2022/12/30 15:02:41;;;;;;;22.63;11.40;;;;;;;;;;4939346;28;20038;-68
2022/12/30 15:05:26;;;;;;;23.02;10.85;;;;;;;;;;4939644;28;20042;-68
2022/12/30 15:08:09;;;;;;;21.60;12.50;;;;;;;;;;4938639;28;20733;-69
2022/12/30 15:10:40;;;;;;;29.83;16.98;;;;;;;;;;4939746;28;20031;-68
2022/12/30 15:13:22;;;;;;;21.67;12.02;;;;;;;;;;4939680;28;20026;-69
2022/12/30 15:15:49;;;;;;;22.67;11.70;;;;;;;;;;4940000;28;20050;-70
2022/12/30 15:18:26;;;;;;;22.40;10.35;;;;;;;;;;4942668;28;20572;-70
2022/12/30 15:20:52;;;;;;;29.35;12.77;;;;;;;;;;4942011;28;20265;-69
2022/12/30 15:23:17;;;;;;;14.95;8.00;;;;;;;;;;4941526;28;20035;-69
2022/12/30 15:25:55;;;;;;;19.77;11.95;;;;;;;;;;4940866;28;20286;-70
2022/12/30 15:28:23;;;;;;;11.65;7.90;;;;;;;;;;4943017;28;20038;-69
2022/12/30 15:30:49;;;;;;;8.40;6.30;;;;;;;;;;4948871;28;20082;-70
2022/12/30 15:33:17;;;;;;;8.48;7.00;;;;;;;;;;4944970;28;20030;-72